createdAt,value
2022-11-16T00:00:15.000Z,6.20
2022-11-16T00:02:43.501Z,6.30
2022-11-16T00:05:12.421Z,6.20
2022-11-16T00:07:40.722Z,6.10
2022-11-16T00:10:11.842Z,6.00
2022-11-16T00:12:40.599Z,6.00
2022-11-16T00:15:09.919Z,6.00
2022-11-16T00:17:38.218Z,6.20
2022-11-16T00:20:08.447Z,6.20
2022-11-16T00:22:36.798Z,6.20
2022-11-16T00:25:06.040Z,6.20
2022-11-16T00:27:35.732Z,6.10
2022-11-16T00:30:05.704Z,6.10
2022-11-16T00:32:34.053Z,6.00
2022-11-16T00:35:02.321Z,6.00
2022-11-16T00:37:30.699Z,5.90
2022-11-16T00:39:58.975Z,6.00
2022-11-16T00:42:27.269Z,6.00
2022-11-16T00:44:56.957Z,6.00
2022-11-16T00:47:25.284Z,6.00
2022-11-16T00:49:53.510Z,6.00
2022-11-16T00:52:21.811Z,5.90
2022-11-16T00:54:50.027Z,5.90
2022-11-16T00:57:18.382Z,6.00
2022-11-16T00:59:46.618Z,5.90
2022-11-16T01:02:16.489Z,5.90
2022-11-16T01:04:44.814Z,5.80
2022-11-16T01:07:13.341Z,5.90
2022-11-16T01:09:41.673Z,6.00
2022-11-16T01:12:10.109Z,6.00
2022-11-16T01:14:39.691Z,6.00
2022-11-16T01:17:08.104Z,6.00
2022-11-16T01:19:39.183Z,6.00
2022-11-16T01:22:08.017Z,6.00
2022-11-16T01:24:36.398Z,6.00
2022-11-16T01:27:04.943Z,6.00
2022-11-16T01:29:33.703Z,6.00
2022-11-16T01:32:02.378Z,6.00
2022-11-16T01:34:30.709Z,6.10
2022-11-16T01:37:00.336Z,6.10
2022-11-16T01:39:28.587Z,6.20
2022-11-16T01:41:56.868Z,6.20
2022-11-16T01:44:59.517Z,6.20
2022-11-16T01:47:28.555Z,6.20
2022-11-16T01:50:03.991Z,6.20
2022-11-16T01:52:40.831Z,6.30
2022-11-16T01:55:09.883Z,6.30
2022-11-16T01:57:43.522Z,6.10
2022-11-16T02:00:14.798Z,6.20
2022-11-16T02:02:43.181Z,6.20
2022-11-16T02:05:14.086Z,6.20
2022-11-16T02:08:34.922Z,6.10
2022-11-16T02:11:33.828Z,6.20
2022-11-16T02:14:21.813Z,6.20
2022-11-16T02:17:05.816Z,6.30
2022-11-16T02:20:11.985Z,6.30
2022-11-16T02:23:08.585Z,6.50
2022-11-16T02:25:54.787Z,6.30
2022-11-16T02:28:37.591Z,6.20
2022-11-16T02:31:14.457Z,6.20
2022-11-16T02:33:47.803Z,6.20
2022-11-16T02:36:23.749Z,6.30
2022-11-16T02:38:59.968Z,6.40
2022-11-16T02:41:34.884Z,6.40
2022-11-16T02:44:10.685Z,6.40
2022-11-16T02:46:47.263Z,6.40
2022-11-16T02:49:20.809Z,6.30
2022-11-16T02:51:51.824Z,6.40
2022-11-16T02:54:22.717Z,6.50
2022-11-16T02:56:56.315Z,6.40
2022-11-16T02:59:31.513Z,6.50
2022-11-16T03:02:16.168Z,6.50
2022-11-16T03:04:49.750Z,6.40
2022-11-16T03:07:26.758Z,6.40
2022-11-16T03:09:57.728Z,6.50
2022-11-16T03:12:31.805Z,6.40
2022-11-16T03:15:06.027Z,6.50
2022-11-16T03:17:42.506Z,6.50
2022-11-16T03:20:17.279Z,6.50
2022-11-16T03:22:48.441Z,6.50
2022-11-16T03:25:20.878Z,6.70
2022-11-16T03:27:57.097Z,6.70
2022-11-16T03:30:29.222Z,6.70
2022-11-16T03:33:08.472Z,6.70
2022-11-16T03:35:44.717Z,6.70
2022-11-16T03:38:16.830Z,6.70
2022-11-16T03:40:48.527Z,6.60
2022-11-16T03:43:20.123Z,6.60
2022-11-16T03:45:49.068Z,6.70
2022-11-16T03:48:18.720Z,6.70
2022-11-16T03:50:47.269Z,6.70
2022-11-16T03:53:15.669Z,6.80
2022-11-16T03:55:49.610Z,6.70
2022-11-16T03:58:19.054Z,6.80
2022-11-16T04:00:47.429Z,6.70
2022-11-16T04:03:15.815Z,6.90
2022-11-16T04:06:03.196Z,6.70
2022-11-16T04:08:49.138Z,6.70
2022-11-16T04:11:39.014Z,6.80
2022-11-16T04:14:29.274Z,6.80
2022-11-16T04:17:14.918Z,6.90
2022-11-16T04:20:00.485Z,6.90
2022-11-16T04:22:53.106Z,6.90
2022-11-16T04:25:28.101Z,7.00
2022-11-16T04:28:13.874Z,7.00
2022-11-16T04:31:01.785Z,6.90
2022-11-16T04:33:48.699Z,6.90
2022-11-16T04:36:35.151Z,7.00
2022-11-16T04:39:05.758Z,7.00
2022-11-16T04:41:52.546Z,7.10
2022-11-16T04:44:24.677Z,7.10
2022-11-16T04:47:06.601Z,7.00
2022-11-16T04:49:35.647Z,6.90
2022-11-16T04:52:04.005Z,7.00
2022-11-16T04:54:33.631Z,7.00
2022-11-16T04:57:01.888Z,7.10
2022-11-16T04:59:30.165Z,7.20
2022-11-16T05:02:10.510Z,7.10
2022-11-16T05:04:41.053Z,7.10
2022-11-16T05:07:12.000Z,6.90
2022-11-16T05:09:43.910Z,7.00
2022-11-16T05:12:16.790Z,6.80
2022-11-16T05:14:45.986Z,7.10
2022-11-16T05:17:15.912Z,7.10
2022-11-16T05:20:01.816Z,7.00
2022-11-16T05:22:30.362Z,7.10
2022-11-16T05:25:00.752Z,7.10
2022-11-16T05:27:30.639Z,7.00
2022-11-16T05:29:58.990Z,7.00
2022-11-16T05:32:29.369Z,7.00
2022-11-16T05:34:57.777Z,6.90
2022-11-16T05:37:26.834Z,6.90
2022-11-16T05:39:56.961Z,6.90
2022-11-16T05:42:26.792Z,6.80
2022-11-16T05:44:55.136Z,6.90
2022-11-16T05:47:23.622Z,6.90
2022-11-16T05:49:52.220Z,6.80
2022-11-16T05:52:20.597Z,6.80
2022-11-16T05:54:48.892Z,6.80
2022-11-16T05:57:17.481Z,6.90
2022-11-16T05:59:47.161Z,7.00
2022-11-16T06:02:15.473Z,6.90
2022-11-16T06:04:43.853Z,7.10
2022-11-16T06:07:12.183Z,6.90
2022-11-16T06:09:40.476Z,7.00
2022-11-16T06:12:09.262Z,6.90
2022-11-16T06:14:37.618Z,6.90
2022-11-16T06:17:07.430Z,6.90
2022-11-16T06:19:36.749Z,6.90
2022-11-16T06:22:05.071Z,6.90
2022-11-16T06:24:33.393Z,6.90
2022-11-16T06:27:01.781Z,6.90
2022-11-16T06:29:30.054Z,6.90
2022-11-16T06:31:58.414Z,7.00
2022-11-16T06:34:28.121Z,7.00
2022-11-16T06:36:56.392Z,6.90
2022-11-16T06:39:24.742Z,7.00
2022-11-16T06:41:53.012Z,7.10
2022-11-16T06:44:21.218Z,7.00
2022-11-16T06:46:49.597Z,6.90
2022-11-16T06:49:17.892Z,6.90
2022-11-16T06:51:47.621Z,6.90
2022-11-16T06:54:15.929Z,6.90
2022-11-16T06:56:44.184Z,6.80
2022-11-16T06:59:12.582Z,6.90
2022-11-16T07:01:41.012Z,6.80
2022-11-16T07:04:11.938Z,6.80
2022-11-16T07:06:40.965Z,6.90
2022-11-16T07:09:11.374Z,6.80
2022-11-16T07:11:39.738Z,6.80
2022-11-16T07:14:07.976Z,6.80
2022-11-16T07:16:37.004Z,6.80
2022-11-16T07:19:06.184Z,6.80
2022-11-16T07:21:34.487Z,6.80
2022-11-16T07:24:02.702Z,6.90
2022-11-16T07:26:33.957Z,6.80
2022-11-16T07:29:03.533Z,6.80
2022-11-16T07:31:32.109Z,7.00
2022-11-16T07:34:00.492Z,6.90
2022-11-16T07:36:28.806Z,7.00
2022-11-16T07:38:57.876Z,6.90
2022-11-16T07:41:26.332Z,6.80
2022-11-16T07:43:56.916Z,6.80
2022-11-16T07:46:46.168Z,7.00
2022-11-16T07:49:17.452Z,7.00
2022-11-16T07:51:46.805Z,7.00
2022-11-16T07:54:15.975Z,7.10
2022-11-16T07:56:44.306Z,7.00
2022-11-16T07:59:13.990Z,7.00
2022-11-16T08:01:42.328Z,7.00
2022-11-16T08:04:10.605Z,6.90
2022-11-16T08:06:38.879Z,6.80
2022-11-16T08:09:07.157Z,6.80
2022-11-16T08:11:35.527Z,6.90
2022-11-16T08:14:03.817Z,6.80
2022-11-16T08:16:34.188Z,6.80
2022-11-16T08:19:02.669Z,6.70
2022-11-16T08:21:31.101Z,6.70
2022-11-16T08:23:59.404Z,6.60
2022-11-16T08:26:28.375Z,6.70
2022-11-16T08:28:57.340Z,6.80
2022-11-16T08:31:28.707Z,6.70
2022-11-16T08:34:00.845Z,6.70
2022-11-16T08:36:29.389Z,6.80
2022-11-16T08:38:58.088Z,6.90
2022-11-16T08:41:31.104Z,6.70
2022-11-16T08:44:00.189Z,6.70
2022-11-16T08:46:28.659Z,6.60
2022-11-16T08:48:58.964Z,6.60
2022-11-16T08:51:27.786Z,6.70
2022-11-16T08:54:01.570Z,6.70
2022-11-16T08:56:30.314Z,6.70
2022-11-16T08:58:59.535Z,6.70
2022-11-16T09:01:31.529Z,6.80
2022-11-16T09:04:01.597Z,6.70
2022-11-16T09:06:30.362Z,6.80
2022-11-16T09:08:59.075Z,6.70
2022-11-16T09:11:27.442Z,6.70
2022-11-16T09:13:57.282Z,6.70
2022-11-16T09:16:27.806Z,6.60
2022-11-16T09:18:57.147Z,6.60
2022-11-16T09:21:31.234Z,6.70
2022-11-16T09:23:59.935Z,6.50
2022-11-16T09:26:28.670Z,6.40
2022-11-16T09:28:59.298Z,6.50
2022-11-16T09:31:28.520Z,6.50
2022-11-16T09:33:58.880Z,6.60
2022-11-16T09:36:29.769Z,6.70
2022-11-16T09:39:30.108Z,6.60
2022-11-16T09:42:06.595Z,6.60
2022-11-16T09:45:04.255Z,6.50
2022-11-16T09:47:49.148Z,6.50
2022-11-16T09:50:44.119Z,6.60
2022-11-16T09:53:32.949Z,6.50
2022-11-16T09:56:08.100Z,6.50
2022-11-16T09:58:47.065Z,6.50
2022-11-16T10:01:26.864Z,6.50
2022-11-16T10:04:03.756Z,6.50
2022-11-16T10:06:50.533Z,6.50
2022-11-16T10:09:21.112Z,6.50
2022-11-16T10:12:05.449Z,6.60
2022-11-16T10:15:16.842Z,6.50
2022-11-16T10:18:12.442Z,6.50
2022-11-16T10:21:07.368Z,6.50
2022-11-16T10:23:57.580Z,6.50
2022-11-16T10:26:39.747Z,6.60
2022-11-16T10:29:30.279Z,6.60
2022-11-16T10:32:26.028Z,6.60
2022-11-16T10:34:57.201Z,6.70
2022-11-16T10:37:33.378Z,6.50
2022-11-16T10:40:18.909Z,6.50
2022-11-16T10:43:01.434Z,6.50
2022-11-16T10:45:44.165Z,6.50
2022-11-16T10:48:26.059Z,6.60
2022-11-16T10:50:55.174Z,6.70
2022-11-16T10:53:34.992Z,6.70
2022-11-16T10:56:23.012Z,6.60
2022-11-16T10:58:59.113Z,6.60
2022-11-16T11:01:36.001Z,6.70
2022-11-16T11:04:23.573Z,6.70
2022-11-16T11:06:54.845Z,6.70
2022-11-16T11:09:33.445Z,6.80
2022-11-16T11:12:31.075Z,6.80
2022-11-16T11:15:06.074Z,7.00
2022-11-16T11:17:36.714Z,6.90
2022-11-16T11:20:09.266Z,6.90
2022-11-16T11:22:57.700Z,6.90
2022-11-16T11:25:31.093Z,6.90
2022-11-16T11:28:08.573Z,6.90
2022-11-16T11:30:40.225Z,6.90
2022-11-16T11:33:13.697Z,7.00
2022-11-16T11:35:42.307Z,7.10
2022-11-16T11:38:16.450Z,7.10
2022-11-16T11:40:59.583Z,7.00
2022-11-16T11:43:30.266Z,7.00
2022-11-16T11:46:14.174Z,7.20
2022-11-16T11:48:55.131Z,7.20
2022-11-16T11:51:33.809Z,7.20
2022-11-16T11:54:06.082Z,7.00
2022-11-16T11:56:34.962Z,7.00
2022-11-16T11:59:05.877Z,7.10
2022-11-16T12:02:19.452Z,7.10
2022-11-16T12:05:42.001Z,7.20
2022-11-16T12:08:34.716Z,7.20
2022-11-16T12:11:19.297Z,7.20
2022-11-16T12:14:23.684Z,7.20
2022-11-16T12:17:09.845Z,7.30
2022-11-16T12:20:17.759Z,7.30
2022-11-16T12:23:13.107Z,7.40
2022-11-16T12:25:55.744Z,7.40
2022-11-16T12:28:45.994Z,7.40
2022-11-16T12:31:49.861Z,7.40
2022-11-16T12:34:37.466Z,7.40
2022-11-16T12:37:15.200Z,7.40
2022-11-16T12:39:54.662Z,7.40
2022-11-16T12:42:40.407Z,7.40
2022-11-16T12:45:54.358Z,7.60
2022-11-16T12:49:14.334Z,7.40
2022-11-16T12:52:05.967Z,7.40
2022-11-16T12:58:21.485Z,7.40
2022-11-16T13:01:07.105Z,7.50
2022-11-16T13:03:46.758Z,7.30
2022-11-16T13:06:20.818Z,7.30
2022-11-16T13:09:02.757Z,7.40
2022-11-16T13:11:37.463Z,7.40
2022-11-16T13:14:13.817Z,7.40
2022-11-16T13:16:43.007Z,7.50
2022-11-16T13:19:16.036Z,7.50
2022-11-16T13:21:56.627Z,7.40
2022-11-16T13:24:43.973Z,7.40
2022-11-16T13:27:29.606Z,7.50
2022-11-16T13:30:06.549Z,7.50
2022-11-16T13:33:00.951Z,7.30
2022-11-16T13:35:29.773Z,7.40
2022-11-16T13:37:58.057Z,7.30
2022-11-16T13:40:33.053Z,7.30
2022-11-16T13:43:19.322Z,7.40
2022-11-16T13:46:01.007Z,7.40
2022-11-16T13:48:35.836Z,7.50
2022-11-16T13:51:08.527Z,7.50
2022-11-16T13:54:42.670Z,7.40
2022-11-16T13:56:51.162Z,7.40
2022-11-16T13:59:27.658Z,7.50
2022-11-16T14:02:00.179Z,7.40
2022-11-16T14:04:54.867Z,7.30
2022-11-16T14:07:36.575Z,7.20
2022-11-16T14:10:07.953Z,7.20
2022-11-16T14:12:59.402Z,7.10
2022-11-16T14:15:35.011Z,7.10
2022-11-16T14:18:34.131Z,7.00
2022-11-16T14:21:21.834Z,7.00
2022-11-16T14:24:22.262Z,7.10
2022-11-16T14:27:04.721Z,7.00
2022-11-16T14:29:58.899Z,7.10
2022-11-16T14:32:32.277Z,7.10
2022-11-16T14:35:06.756Z,7.20
2022-11-16T14:37:39.981Z,7.10
2022-11-16T14:40:16.653Z,7.00
2022-11-16T14:45:47.972Z,7.10
2022-11-16T14:48:20.386Z,7.20
2022-11-16T14:51:07.185Z,7.10
2022-11-16T14:53:42.003Z,7.20
2022-11-16T14:56:13.791Z,7.40
2022-11-16T14:58:53.417Z,7.20
2022-11-16T15:01:27.563Z,7.50
2022-11-16T15:04:02.706Z,7.30
2022-11-16T15:06:37.952Z,7.30
2022-11-16T15:09:07.408Z,7.20
2022-11-16T15:11:59.129Z,7.20
2022-11-16T15:14:31.263Z,7.10
2022-11-16T15:17:01.863Z,7.00
2022-11-16T15:19:32.160Z,7.00
2022-11-16T15:22:03.279Z,7.10
2022-11-16T15:24:34.486Z,7.10
2022-11-16T15:27:20.385Z,7.10
2022-11-16T15:29:49.335Z,7.00
2022-11-16T15:32:19.529Z,6.90
2022-11-16T15:34:53.566Z,6.90
2022-11-16T15:37:29.697Z,6.90
2022-11-16T15:39:59.993Z,7.00
2022-11-16T15:42:30.498Z,7.00
2022-11-16T15:45:18.600Z,7.00
2022-11-16T15:47:49.508Z,7.00
2022-11-16T15:50:19.841Z,7.10
2022-11-16T15:52:52.685Z,7.20
2022-11-16T15:55:31.857Z,7.20
2022-11-16T15:58:14.906Z,7.20
2022-11-16T16:00:44.026Z,7.10
2022-11-16T16:03:24.112Z,7.10
2022-11-16T16:05:54.375Z,7.00
2022-11-16T16:08:37.806Z,7.00
2022-11-16T16:11:12.137Z,6.80
2022-11-16T16:13:42.875Z,6.90
2022-11-16T16:16:29.276Z,6.80
2022-11-16T16:19:08.300Z,6.80
2022-11-16T16:21:47.237Z,6.80
2022-11-16T16:24:44.304Z,6.80
2022-11-16T16:27:17.161Z,6.80
2022-11-16T16:29:47.159Z,6.90
2022-11-16T16:32:25.235Z,6.80
2022-11-16T16:34:56.050Z,6.70
2022-11-16T16:37:27.345Z,6.70
2022-11-16T16:39:55.701Z,6.70
2022-11-16T16:42:24.219Z,6.70
2022-11-16T16:44:52.759Z,6.70
2022-11-16T16:47:21.393Z,6.70
2022-11-16T16:49:50.147Z,6.80
2022-11-16T16:52:20.096Z,6.80
2022-11-16T16:54:48.386Z,6.90
2022-11-16T16:57:18.533Z,7.10
2022-11-16T16:59:48.424Z,6.80
2022-11-16T17:02:18.173Z,6.70
2022-11-16T17:04:48.446Z,6.70
2022-11-16T17:07:17.217Z,6.70
2022-11-16T17:09:47.055Z,6.60
2022-11-16T17:12:15.257Z,6.80
2022-11-16T17:14:43.921Z,6.80
2022-11-16T17:17:12.294Z,6.80
2022-11-16T17:19:40.537Z,6.70
2022-11-16T17:22:08.731Z,6.60
2022-11-16T17:24:36.979Z,6.50
2022-11-16T17:27:06.649Z,6.50
2022-11-16T17:29:35.010Z,6.50
2022-11-16T17:32:03.816Z,6.70
2022-11-16T17:34:32.381Z,6.60
2022-11-16T17:37:00.584Z,6.60
2022-11-16T17:39:28.804Z,6.60
2022-11-16T17:41:57.104Z,6.60
2022-11-16T17:44:27.259Z,6.60
2022-11-16T17:46:55.544Z,6.70
2022-11-16T17:49:23.949Z,6.70
2022-11-16T17:51:52.342Z,6.60
2022-11-16T17:54:20.835Z,6.60
2022-11-16T17:56:49.170Z,6.50
2022-11-16T17:59:17.791Z,6.50
2022-11-16T18:01:48.503Z,6.80
2022-11-16T18:04:16.855Z,6.60
2022-11-16T18:06:45.192Z,6.60
2022-11-16T18:09:13.726Z,6.60
2022-11-16T18:11:42.031Z,6.70
2022-11-16T18:14:10.587Z,6.70
2022-11-16T18:16:41.067Z,6.70
2022-11-16T18:19:15.910Z,6.70
2022-11-16T18:21:44.971Z,6.60
2022-11-16T18:24:14.629Z,6.60
2022-11-16T18:26:42.946Z,6.60
2022-11-16T18:29:15.848Z,6.50
2022-11-16T18:31:44.629Z,6.40
2022-11-16T18:34:16.005Z,6.40
2022-11-16T18:36:46.261Z,6.40
2022-11-16T18:39:14.682Z,6.40
2022-11-16T18:41:53.287Z,6.70
2022-11-16T18:44:23.259Z,6.50
2022-11-16T18:46:51.703Z,6.60
2022-11-16T18:49:21.326Z,6.60
2022-11-16T18:51:49.897Z,6.60
2022-11-16T18:54:19.537Z,6.40
2022-11-16T18:56:50.500Z,6.60
2022-11-16T18:59:18.837Z,6.60
2022-11-16T19:01:47.175Z,6.70
2022-11-16T19:04:15.588Z,6.60
2022-11-16T19:06:45.508Z,6.50
2022-11-16T19:09:14.029Z,6.40
2022-11-16T19:11:42.356Z,6.40
2022-11-16T19:14:10.794Z,6.50
2022-11-16T19:16:45.188Z,6.40
2022-11-16T19:19:17.636Z,6.40
2022-11-16T19:21:47.587Z,6.30
2022-11-16T19:24:15.844Z,6.30
2022-11-16T19:26:44.059Z,6.00
2022-11-16T19:29:12.448Z,6.10
2022-11-16T19:31:40.742Z,6.10
2022-11-16T19:34:13.165Z,6.10
2022-11-16T19:36:41.644Z,6.20
2022-11-16T19:39:11.503Z,6.20
2022-11-16T19:41:39.807Z,6.20
2022-11-16T19:44:08.048Z,6.20
2022-11-16T19:46:36.593Z,6.10
2022-11-16T19:49:05.449Z,6.00
2022-11-16T19:51:35.168Z,6.00
2022-11-16T19:54:04.409Z,6.20
2022-11-16T19:56:34.128Z,6.00
2022-11-16T19:59:02.823Z,6.00
2022-11-16T20:01:31.058Z,6.00
2022-11-16T20:04:02.415Z,6.00
2022-11-16T20:06:33.799Z,6.00
2022-11-16T20:09:08.754Z,5.90
2022-11-16T20:11:40.937Z,5.90
2022-11-16T20:14:11.985Z,5.90
2022-11-16T20:16:43.118Z,5.80
2022-11-16T20:19:12.271Z,5.90
2022-11-16T20:21:42.737Z,5.80
2022-11-16T20:24:14.994Z,5.80
2022-11-16T20:26:46.997Z,5.80
2022-11-16T20:29:17.773Z,5.80
2022-11-16T20:31:46.363Z,5.60
2022-11-16T20:34:17.479Z,5.70
2022-11-16T20:36:49.655Z,5.50
2022-11-16T20:39:20.953Z,5.60
2022-11-16T20:41:50.962Z,5.60
2022-11-16T20:44:22.162Z,5.60
2022-11-16T20:46:52.341Z,5.50
2022-11-16T20:49:20.940Z,5.50
2022-11-16T20:51:50.996Z,5.40
2022-11-16T20:54:19.241Z,5.50
2022-11-16T20:56:49.511Z,5.40
2022-11-16T20:59:19.478Z,5.30
2022-11-16T21:01:48.757Z,5.40
2022-11-16T21:04:17.327Z,5.30
2022-11-16T21:06:46.121Z,5.40
2022-11-16T21:09:22.339Z,5.40
2022-11-16T21:12:10.685Z,5.50
2022-11-16T21:14:40.413Z,5.40
2022-11-16T21:17:08.839Z,5.40
2022-11-16T21:19:37.187Z,5.40
2022-11-16T21:22:05.419Z,5.30
2022-11-16T21:24:34.719Z,5.20
2022-11-16T21:27:02.963Z,5.30
2022-11-16T21:29:31.573Z,5.30
2022-11-16T21:32:01.209Z,5.30
2022-11-16T21:34:34.614Z,5.20
2022-11-16T21:37:05.552Z,5.20
2022-11-16T21:39:33.880Z,5.30
2022-11-16T21:42:02.061Z,5.20
2022-11-16T21:44:41.757Z,5.30
2022-11-16T21:47:12.765Z,5.30
2022-11-16T21:50:00.935Z,5.20
2022-11-16T21:52:29.968Z,5.20
2022-11-16T21:55:00.353Z,5.30
2022-11-16T21:57:28.726Z,5.20
2022-11-16T21:59:56.966Z,5.30
2022-11-16T22:02:26.621Z,5.20
2022-11-16T22:05:12.573Z,5.20
2022-11-16T22:07:42.159Z,5.20
2022-11-16T22:10:13.253Z,5.10
2022-11-16T22:12:41.556Z,5.20
2022-11-16T22:15:10.873Z,5.30
2022-11-16T22:17:45.363Z,5.30
2022-11-16T22:20:14.012Z,5.20
2022-11-16T22:22:42.282Z,5.10
2022-11-16T22:25:13.823Z,5.10
2022-11-16T22:28:05.592Z,5.00
2022-11-16T22:30:30.554Z,5.00
2022-11-16T22:33:00.161Z,4.90
2022-11-16T22:35:28.475Z,4.80
2022-11-16T22:37:57.001Z,4.90
2022-11-16T22:40:25.289Z,4.80
2022-11-16T22:42:57.843Z,4.80
2022-11-16T22:45:27.082Z,4.80
2022-11-16T22:47:56.557Z,4.80
2022-11-16T22:50:26.249Z,4.80
2022-11-16T22:52:54.470Z,4.90
2022-11-16T22:55:22.693Z,4.80
2022-11-16T22:57:51.183Z,4.90
2022-11-16T23:00:20.319Z,4.80
2022-11-16T23:02:48.623Z,4.80
2022-11-16T23:05:17.158Z,4.80
2022-11-16T23:07:46.846Z,4.70
2022-11-16T23:10:15.620Z,4.80
2022-11-16T23:13:01.101Z,4.60
2022-11-16T23:15:47.126Z,4.70
2022-11-16T23:18:15.826Z,4.60
2022-11-16T23:21:01.628Z,4.50
2022-11-16T23:23:48.558Z,4.50
2022-11-16T23:26:41.698Z,4.50
2022-11-16T23:29:11.871Z,4.50
2022-11-16T23:31:40.440Z,4.50
2022-11-16T23:34:08.796Z,4.50
2022-11-16T23:36:37.012Z,4.40
2022-11-16T23:39:06.707Z,4.40
2022-11-16T23:41:52.401Z,4.30
2022-11-16T23:44:20.682Z,4.50
2022-11-16T23:46:48.950Z,4.50
2022-11-16T23:49:17.269Z,4.60
2022-11-16T23:51:45.576Z,4.40
2022-11-16T23:54:15.218Z,4.30
2022-11-16T23:56:43.476Z,4.40
2022-11-16T23:59:11.761Z,4.10
